NORTHEAST SUFFOLK  -  Winter Weather Advisory Winter Weather Advisory        NORTHERN NASSAU  -  Winter Weather Advisory Winter Weather Advisory        NORTHERN QUEENS  -  Winter Weather Advisory Winter Weather Advisory        NORTHWEST SUFFOLK  -  Winter Weather Advisory Winter Weather Advisory        SOUTHEAST SUFFOLK  -  Winter Weather Advisory Winter Weather Advisory        SOUTHERN NASSAU  -  Winter Weather Advisory Winter Weather Advisory        SOUTHERN QUEENS  -  Winter Weather Advisory Winter Weather Advisory        SOUTHWEST SUFFOLK  -  Winter Weather Advisory Winter Weather Advisory      

Active alerts

Northern Queens
  Details for Northern Queens Winter Weather Advisory
Southern Queens
  Details for Southern Queens Winter Weather Advisory
Northern Nassau
  Details for Northern Nassau Winter Weather Advisory
Southern Nassau
  Details for Southern Nassau Winter Weather Advisory
Northwest Suffolk
  Details for Northwest Suffolk Winter Weather Advisory
Southwest Suffolk
  Details for Southwest Suffolk Winter Weather Advisory
Northeast Suffolk
  Details for Northeast Suffolk Winter Weather Advisory
Southeast Suffolk
  Details for Southeast Suffolk Winter Weather Advisory


WXM80 ListenWXM80 Stop

You find our weather info also at:

UK Metoffice

WeatherCloud

Weather Underground

Northeastern Weather Network

AWEKAS

Citizen Weather Observer Program (CWOP)

HAMweather, WeatherForYou, PWS Weather


Weather Underground History page Text

Daily Summary for January 1, 2018 Units:  Both    English   Metric
« Previous Day
Next Day »
Daily Weekly Monthly Yearly Custom
  High: Low: Average:
Temperature: 18.2 °F /  -7.7 °C 8.5 °F /  -13.1 °C 14 °F /  -10 °C
Dew Point: 7.1 °F /  -13.8 °C 0.2 °F /  -17.7 °C 2.4 °F /  -16.4 °C
Humidity: 72 % 46 % 60 %
Wind Speed: 11.9 mph /  19.2 km/h - 5.2 mph /  8.4 km/h
Wind Gust: 19.6 mph /  31.5 km/h - -
Wind:- - WNW
Pressure: 30.38 in /  1028.7 hPa 30.30 in /  1026 hPa -
Precipitation: 0.00 in /  0 mm    
Historical Graphs
 
 
Tabular Data for January 1, 2018
Time Temperature Dew Point Pressure Wind Wind Speed Wind Gust Humidity Rainfall Rate (Hourly)
00:01 10.9 °F /  -11.7 °C 1.4 °F /  -17 °C 30.30 in /  1026 hPa WNW 4.9 mph /  7.9 km/h 8.1 mph /  13 km/h 65 % 0.00 in /  0 mm
00:06 10.8 °F /  -11.8 °C 1.7 °F /  -16.8 °C 30.30 in /  1026 hPa North 5.7 mph /  9.2 km/h 8.1 mph /  13 km/h 66 % 0.00 in /  0 mm
00:11 10.8 °F /  -11.8 °C 1.3 °F /  -17.1 °C 30.30 in /  1026 hPa NNW 5.6 mph /  9 km/h 10.4 mph /  16.7 km/h 65 % 0.00 in /  0 mm
00:14 10.7 °F /  -11.8 °C 1.2 °F /  -17.1 °C 30.30 in /  1026 hPa North 5.7 mph /  9.2 km/h 15.0 mph /  24.1 km/h 65 % 0.00 in /  0 mm
00:17 10.7 °F /  -11.8 °C 1.2 °F /  -17.1 °C 30.30 in /  1026 hPa NW 4.8 mph /  7.7 km/h 6.9 mph /  11.1 km/h 65 % 0.00 in /  0 mm
00:20 10.7 °F /  -11.8 °C 1.2 °F /  -17.1 °C 30.30 in /  1026 hPa North 4.8 mph /  7.7 km/h 9.2 mph /  14.8 km/h 65 % 0.00 in /  0 mm
00:26 10.6 °F /  -11.9 °C 1.5 °F /  -16.9 °C 30.30 in /  1026 hPa NW 5.9 mph /  9.5 km/h 11.5 mph /  18.5 km/h 66 % 0.00 in /  0 mm
00:31 10.6 °F /  -11.9 °C 1.5 °F /  -16.9 °C 30.30 in /  1026 hPa NNW 3.0 mph /  4.8 km/h 12.0 mph /  19.3 km/h 66 % 0.00 in /  0 mm
00:36 10.5 °F /  -11.9 °C 1.4 °F /  -17 °C 30.30 in /  1026 hPa NNW 6.9 mph /  11.1 km/h 14.0 mph /  22.5 km/h 66 % 0.00 in /  0 mm
00:37 10.5 °F /  -11.9 °C 1.4 °F /  -17 °C 30.30 in /  1026 hPa NNW 3.4 mph /  5.5 km/h 13.8 mph /  22.2 km/h 66 % 0.00 in /  0 mm
00:42 10.5 °F /  -11.9 °C 1.4 °F /  -17 °C 30.30 in /  1026 hPa NE 4.8 mph /  7.7 km/h 6.9 mph /  11.1 km/h 66 % 0.00 in /  0 mm
00:44 10.6 °F /  -11.9 °C 1.8 °F /  -16.8 °C 30.30 in /  1026 hPa NNW 7.8 mph /  12.6 km/h 11.5 mph /  18.5 km/h 67 % 0.00 in /  0 mm
00:46 10.6 °F /  -11.9 °C 1.5 °F /  -16.9 °C 30.30 in /  1026 hPa NW 5.2 mph /  8.4 km/h 8.1 mph /  13 km/h 66 % 0.00 in /  0 mm
00:50 10.6 °F /  -11.9 °C 1.5 °F /  -16.9 °C 30.30 in /  1026 hPa North 5.0 mph /  8 km/h 12.0 mph /  19.3 km/h 66 % 0.00 in /  0 mm
00:52 10.5 °F /  -11.9 °C 1.4 °F /  -17 °C 30.30 in /  1026 hPa North 7.7 mph /  12.4 km/h 11.5 mph /  18.5 km/h 66 % 0.00 in /  0 mm
00:57 10.5 °F /  -11.9 °C 1.4 °F /  -17 °C 30.31 in /  1026.3 hPa NW 3.9 mph /  6.3 km/h 6.9 mph /  11.1 km/h 66 % 0.00 in /  0 mm
01:01 10.5 °F /  -11.9 °C 1.7 °F /  -16.8 °C 30.30 in /  1026 hPa WNW 6.3 mph /  10.1 km/h 12.7 mph /  20.4 km/h 67 % 0.00 in /  0 mm
01:05 10.5 °F /  -11.9 °C 1.4 °F /  -17 °C 30.30 in /  1026 hPa North 5.2 mph /  8.4 km/h 6.9 mph /  11.1 km/h 66 % 0.00 in /  0 mm
01:11 10.5 °F /  -11.9 °C 1.7 °F /  -16.8 °C 30.30 in /  1026 hPa NNW 3.0 mph /  4.8 km/h 14.0 mph /  22.5 km/h 67 % 0.00 in /  0 mm
01:16 10.5 °F /  -11.9 °C 1.7 °F /  -16.8 °C 30.30 in /  1026 hPa WNW 6.2 mph /  10 km/h 12.7 mph /  20.4 km/h 67 % 0.00 in /  0 mm
01:21 10.4 °F /  -12 °C 1.3 °F /  -17.1 °C 30.31 in /  1026.3 hPa NNW 4.3 mph /  6.9 km/h 12.7 mph /  20.4 km/h 66 % 0.00 in /  0 mm
01:26 10.5 °F /  -11.9 °C 2.0 °F /  -16.7 °C 30.31 in /  1026.3 hPa North 5.9 mph /  9.5 km/h 8.0 mph /  12.9 km/h 68 % 0.00 in /  0 mm
01:28 10.5 °F /  -11.9 °C 2.0 °F /  -16.7 °C 30.30 in /  1026 hPa NNW 7.2 mph /  11.6 km/h 11.5 mph /  18.5 km/h 68 % 0.00 in /  0 mm
01:31 10.4 °F /  -12 °C 1.9 °F /  -16.7 °C 30.31 in /  1026.3 hPa NW 3.1 mph /  5 km/h 9.2 mph /  14.8 km/h 68 % 0.00 in /  0 mm
01:35 10.5 °F /  -11.9 °C 2.0 °F /  -16.7 °C 30.31 in /  1026.3 hPa North 7.2 mph /  11.6 km/h 11.5 mph /  18.5 km/h 68 % 0.00 in /  0 mm
01:40 10.5 °F /  -11.9 °C 2.3 °F /  -16.5 °C 30.31 in /  1026.3 hPa North 7.3 mph /  11.7 km/h 14.0 mph /  22.5 km/h 69 % 0.00 in /  0 mm
01:43 10.5 °F /  -11.9 °C 1.7 °F /  -16.8 °C 30.31 in /  1026.3 hPa WNW 6.9 mph /  11.1 km/h 14.0 mph /  22.5 km/h 67 % 0.00 in /  0 mm
01:48 10.5 °F /  -11.9 °C 2.0 °F /  -16.7 °C 30.31 in /  1026.3 hPa NW 3.5 mph /  5.6 km/h 7.0 mph /  11.3 km/h 68 % 0.00 in /  0 mm
01:53 10.4 °F /  -12 °C 1.6 °F /  -16.9 °C 30.31 in /  1026.3 hPa North 4.0 mph /  6.4 km/h 10.4 mph /  16.7 km/h 67 % 0.00 in /  0 mm
01:58 10.4 °F /  -12 °C 1.6 °F /  -16.9 °C 30.32 in /  1026.6 hPa NNW 4.9 mph /  7.9 km/h 8.1 mph /  13 km/h 67 % 0.00 in /  0 mm
02:03 10.4 °F /  -12 °C 1.6 °F /  -16.9 °C 30.32 in /  1026.6 hPa NNW 5.0 mph /  8 km/h 11.5 mph /  18.5 km/h 67 % 0.00 in /  0 mm
02:04 10.4 °F /  -12 °C 1.6 °F /  -16.9 °C 30.32 in /  1026.6 hPa NW 3.9 mph /  6.3 km/h 10.4 mph /  16.7 km/h 67 % 0.00 in /  0 mm
02:09 10.3 °F /  -12.1 °C 1.5 °F /  -16.9 °C 30.32 in /  1026.6 hPa NNW 7.7 mph /  12.4 km/h 11.5 mph /  18.5 km/h 67 % 0.00 in /  0 mm
02:14 10.3 °F /  -12.1 °C 1.8 °F /  -16.8 °C 30.32 in /  1026.6 hPa NNW 4.4 mph /  7.1 km/h 8.1 mph /  13 km/h 68 % 0.00 in /  0 mm
02:15 10.3 °F /  -12.1 °C 1.5 °F /  -16.9 °C 30.32 in /  1026.6 hPa North 4.7 mph /  7.6 km/h 9.2 mph /  14.8 km/h 67 % 0.00 in /  0 mm
02:20 10.3 °F /  -12.1 °C 1.5 °F /  -16.9 °C 30.32 in /  1026.6 hPa NW 4.3 mph /  6.9 km/h 8.0 mph /  12.9 km/h 67 % 0.00 in /  0 mm
02:21 10.3 °F /  -12.1 °C 1.5 °F /  -16.9 °C 30.32 in /  1026.6 hPa NW 4.6 mph /  7.4 km/h 7.0 mph /  11.3 km/h 67 % 0.00 in /  0 mm
02:26 10.2 °F /  -12.1 °C 1.4 °F /  -17 °C 30.32 in /  1026.6 hPa NW 5.0 mph /  8 km/h 12.0 mph /  19.3 km/h 67 % 0.00 in /  0 mm
02:27 10.2 °F /  -12.1 °C 1.1 °F /  -17.2 °C 30.32 in /  1026.6 hPa NW 2.8 mph /  4.5 km/h 8.1 mph /  13 km/h 66 % 0.00 in /  0 mm
02:32 10.2 °F /  -12.1 °C 1.4 °F /  -17 °C 30.32 in /  1026.6 hPa NNW 2.8 mph /  4.5 km/h 6.9 mph /  11.1 km/h 67 % 0.00 in /  0 mm
02:37 10.2 °F /  -12.1 °C 1.7 °F /  -16.8 °C 30.32 in /  1026.6 hPa NW 4.6 mph /  7.4 km/h 10.4 mph /  16.7 km/h 68 % 0.00 in /  0 mm
02:42 10.1 °F /  -12.2 °C 1.3 °F /  -17.1 °C 30.32 in /  1026.6 hPa NNW 5.3 mph /  8.5 km/h 11.5 mph /  18.5 km/h 67 % 0.00 in /  0 mm
02:43 10.1 °F /  -12.2 °C 1.3 °F /  -17.1 °C 30.32 in /  1026.6 hPa NW 7.0 mph /  11.3 km/h 11.5 mph /  18.5 km/h 67 % 0.00 in /  0 mm
02:48 10.1 °F /  -12.2 °C 1.6 °F /  -16.9 °C 30.32 in /  1026.6 hPa NW 4.5 mph /  7.2 km/h 5.8 mph /  9.3 km/h 68 % 0.00 in /  0 mm
02:50 10.1 °F /  -12.2 °C 1.6 °F /  -16.9 °C 30.32 in /  1026.6 hPa NW 4.3 mph /  6.9 km/h 11.5 mph /  18.5 km/h 68 % 0.00 in /  0 mm
02:55 10.0 °F /  -12.2 °C 1.5 °F /  -16.9 °C 30.32 in /  1026.6 hPa NW 5.5 mph /  8.9 km/h 11.5 mph /  18.5 km/h 68 % 0.00 in /  0 mm
03:00 10.0 °F /  -12.2 °C 1.5 °F /  -16.9 °C 30.32 in /  1026.6 hPa WNW 3.0 mph /  4.8 km/h 7.0 mph /  11.3 km/h 68 % 0.00 in /  0 mm
03:05 10.0 °F /  -12.2 °C 1.5 °F /  -16.9 °C 30.32 in /  1026.6 hPa NW 4.0 mph /  6.4 km/h 10.4 mph /  16.7 km/h 68 % 0.00 in /  0 mm
03:07 10.0 °F /  -12.2 °C 1.5 °F /  -16.9 °C 30.32 in /  1026.6 hPa NNE 6.4 mph /  10.3 km/h 12.7 mph /  20.4 km/h 68 % 0.00 in /  0 mm
03:12 9.9 °F /  -12.3 °C 1.4 °F /  -17 °C 30.32 in /  1026.6 hPa WNW 5.2 mph /  8.4 km/h 12.7 mph /  20.4 km/h 68 % 0.00 in /  0 mm
03:13 9.9 °F /  -12.3 °C 1.4 °F /  -17 °C 30.32 in /  1026.6 hPa NNW 4.8 mph /  7.7 km/h 9.2 mph /  14.8 km/h 68 % 0.00 in /  0 mm
03:18 9.9 °F /  -12.3 °C 1.1 °F /  -17.2 °C 30.31 in /  1026.3 hPa North 5.0 mph /  8 km/h 9.2 mph /  14.8 km/h 67 % 0.00 in /  0 mm
03:20 9.9 °F /  -12.3 °C 1.1 °F /  -17.2 °C 30.31 in /  1026.3 hPa NNW 2.9 mph /  4.7 km/h 5.8 mph /  9.3 km/h 67 % 0.00 in /  0 mm
03:25 9.8 °F /  -12.3 °C 1.3 °F /  -17.1 °C 30.31 in /  1026.3 hPa NNW 4.0 mph /  6.4 km/h 9.2 mph /  14.8 km/h 68 % 0.00 in /  0 mm
03:30 9.8 °F /  -12.3 °C 1.3 °F /  -17.1 °C 30.31 in /  1026.3 hPa NW 3.0 mph /  4.8 km/h 11.5 mph /  18.5 km/h 68 % 0.00 in /  0 mm
03:33 9.8 °F /  -12.3 °C 1.3 °F /  -17.1 °C 30.31 in /  1026.3 hPa West 4.6 mph /  7.4 km/h 12.0 mph /  19.3 km/h 68 % 0.00 in /  0 mm
03:38 9.7 °F /  -12.4 °C 1.2 °F /  -17.1 °C 30.31 in /  1026.3 hPa NW 0.9 mph /  1.4 km/h 3.0 mph /  4.8 km/h 68 % 0.00 in /  0 mm
03:40 9.7 °F /  -12.4 °C 1.2 °F /  -17.1 °C 30.31 in /  1026.3 hPa NW 5.6 mph /  9 km/h 10.4 mph /  16.7 km/h 68 % 0.00 in /  0 mm
03:41 9.7 °F /  -12.4 °C 1.2 °F /  -17.1 °C 30.31 in /  1026.3 hPa NW 3.7 mph /  6 km/h 6.9 mph /  11.1 km/h 68 % 0.00 in /  0 mm
03:46 9.7 °F /  -12.4 °C 1.2 °F /  -17.1 °C 30.31 in /  1026.3 hPa WNW 8.9 mph /  14.3 km/h 11.5 mph /  18.5 km/h 68 % 0.00 in /  0 mm
03:47 9.7 °F /  -12.4 °C 1.2 °F /  -17.1 °C 30.30 in /  1026 hPa NW 3.6 mph /  5.8 km/h 11.5 mph /  18.5 km/h 68 % 0.00 in /  0 mm
03:52 9.7 °F /  -12.4 °C 1.2 °F /  -17.1 °C 30.31 in /  1026.3 hPa West 4.1 mph /  6.6 km/h 9.0 mph /  14.5 km/h 68 % 0.00 in /  0 mm
03:57 9.6 °F /  -12.4 °C 1.2 °F /  -17.1 °C 30.31 in /  1026.3 hPa NW 5.4 mph /  8.7 km/h 8.1 mph /  13 km/h 68 % 0.00 in /  0 mm
04:02 9.6 °F /  -12.4 °C 1.2 °F /  -17.1 °C 30.31 in /  1026.3 hPa West 5.3 mph /  8.5 km/h 9.0 mph /  14.5 km/h 68 % 0.00 in /  0 mm
04:03 9.6 °F /  -12.4 °C 1.2 °F /  -17.1 °C 30.30 in /  1026 hPa NNW 4.4 mph /  7.1 km/h 10.4 mph /  16.7 km/h 68 % 0.00 in /  0 mm
04:08 9.5 °F /  -12.5 °C 1.1 °F /  -17.2 °C 30.31 in /  1026.3 hPa WNW 2.8 mph /  4.5 km/h 11.5 mph /  18.5 km/h 68 % 0.00 in /  0 mm
04:13 9.4 °F /  -12.6 °C 1.3 °F /  -17.1 °C 30.31 in /  1026.3 hPa NNE 6.4 mph /  10.3 km/h 10.4 mph /  16.7 km/h 69 % 0.00 in /  0 mm
04:18 9.4 °F /  -12.6 °C 1.3 °F /  -17.1 °C 30.31 in /  1026.3 hPa NNW 4.0 mph /  6.4 km/h 12.0 mph /  19.3 km/h 69 % 0.00 in /  0 mm
04:20 9.4 °F /  -12.6 °C 1.3 °F /  -17.1 °C 30.31 in /  1026.3 hPa North 6.0 mph /  9.7 km/h 11.5 mph /  18.5 km/h 69 % 0.00 in /  0 mm
04:24 9.4 °F /  -12.6 °C 1.0 °F /  -17.2 °C 30.31 in /  1026.3 hPa NW 3.3 mph /  5.3 km/h 11.5 mph /  18.5 km/h 68 % 0.00 in /  0 mm
04:29 9.3 °F /  -12.6 °C 1.2 °F /  -17.1 °C 30.31 in /  1026.3 hPa NW 4.3 mph /  6.9 km/h 16.1 mph /  25.9 km/h 69 % 0.00 in /  0 mm
04:30 9.4 °F /  -12.6 °C 1.3 °F /  -17.1 °C 30.31 in /  1026.3 hPa NW 5.1 mph /  8.2 km/h 10.0 mph /  16.1 km/h 69 % 0.00 in /  0 mm
04:35 9.3 °F /  -12.6 °C 1.5 °F /  -16.9 °C 30.31 in /  1026.3 hPa NW 3.5 mph /  5.6 km/h 10.4 mph /  16.7 km/h 70 % 0.00 in /  0 mm
04:39 9.3 °F /  -12.6 °C 1.5 °F /  -16.9 °C 30.31 in /  1026.3 hPa NW 1.6 mph /  2.6 km/h 9.2 mph /  14.8 km/h 70 % 0.00 in /  0 mm
04:41 9.3 °F /  -12.6 °C 1.5 °F /  -16.9 °C 30.31 in /  1026.3 hPa WSW 2.0 mph /  3.2 km/h 3.5 mph /  5.6 km/h 70 % 0.00 in /  0 mm
04:44 9.2 °F /  -12.7 °C 1.4 °F /  -17 °C 30.32 in /  1026.6 hPa WNW 5.9 mph /  9.5 km/h 9.2 mph /  14.8 km/h 70 % 0.00 in /  0 mm
04:49 9.2 °F /  -12.7 °C 1.4 °F /  -17 °C 30.32 in /  1026.6 hPa NW 5.1 mph /  8.2 km/h 10.4 mph /  16.7 km/h 70 % 0.00 in /  0 mm
04:51 9.2 °F /  -12.7 °C 1.4 °F /  -17 °C 30.32 in /  1026.6 hPa NNW 7.0 mph /  11.3 km/h 13.0 mph /  20.9 km/h 70 % 0.00 in /  0 mm
04:56 9.2 °F /  -12.7 °C 1.1 °F /  -17.2 °C 30.32 in /  1026.6 hPa WNW 4.3 mph /  6.9 km/h 17.3 mph /  27.8 km/h 69 % 0.00 in /  0 mm
04:57 9.2 °F /  -12.7 °C 1.1 °F /  -17.2 °C 30.32 in /  1026.6 hPa North 3.5 mph /  5.6 km/h 9.2 mph /  14.8 km/h 69 % 0.00 in /  0 mm
05:02 9.2 °F /  -12.7 °C 1.4 °F /  -17 °C 30.32 in /  1026.6 hPa WNW 4.3 mph /  6.9 km/h 10.4 mph /  16.7 km/h 70 % 0.00 in /  0 mm
05:07 9.2 °F /  -12.7 °C 1.4 °F /  -17 °C 30.32 in /  1026.6 hPa NW 7.0 mph /  11.3 km/h 12.7 mph /  20.4 km/h 70 % 0.00 in /  0 mm
05:10 9.2 °F /  -12.7 °C 1.4 °F /  -17 °C 30.32 in /  1026.6 hPa NNW 4.1 mph /  6.6 km/h 9.2 mph /  14.8 km/h 70 % 0.00 in /  0 mm
05:12 9.2 °F /  -12.7 °C 1.4 °F /  -17 °C 30.33 in /  1027 hPa NW 5.1 mph /  8.2 km/h 11.5 mph /  18.5 km/h 70 % 0.00 in /  0 mm
05:17 9.1 °F /  -12.7 °C 1.3 °F /  -17.1 °C 30.33 in /  1027 hPa NNW 2.5 mph /  4 km/h 6.0 mph /  9.7 km/h 70 % 0.00 in /  0 mm
05:23 9.1 °F /  -12.7 °C 1.3 °F /  -17.1 °C 30.33 in /  1027 hPa NW 5.7 mph /  9.2 km/h 11.5 mph /  18.5 km/h 70 % 0.00 in /  0 mm
05:24 9.1 °F /  -12.7 °C 1.3 °F /  -17.1 °C 30.32 in /  1026.6 hPa WNW 6.3 mph /  10.1 km/h 8.1 mph /  13 km/h 70 % 0.00 in /  0 mm
05:28 9.1 °F /  -12.7 °C 1.3 °F /  -17.1 °C 30.33 in /  1027 hPa WNW 7.5 mph /  12.1 km/h 13.0 mph /  20.9 km/h 70 % 0.00 in /  0 mm
05:32 9.0 °F /  -12.8 °C 1.2 °F /  -17.1 °C 30.32 in /  1026.6 hPa North 5.4 mph /  8.7 km/h 13.0 mph /  20.9 km/h 70 % 0.00 in /  0 mm
05:37 9.0 °F /  -12.8 °C 0.9 °F /  -17.3 °C 30.33 in /  1027 hPa NW 4.8 mph /  7.7 km/h 10.4 mph /  16.7 km/h 69 % 0.00 in /  0 mm
05:40 9.0 °F /  -12.8 °C 1.2 °F /  -17.1 °C 30.32 in /  1026.6 hPa NNW 5.6 mph /  9 km/h 11.5 mph /  18.5 km/h 70 % 0.00 in /  0 mm
05:46 9.0 °F /  -12.8 °C 1.2 °F /  -17.1 °C 30.32 in /  1026.6 hPa NNW 6.0 mph /  9.7 km/h 16.0 mph /  25.7 km/h 70 % 0.00 in /  0 mm
05:48 9.0 °F /  -12.8 °C 0.9 °F /  -17.3 °C 30.32 in /  1026.6 hPa NNW 5.0 mph /  8 km/h 7.0 mph /  11.3 km/h 69 % 0.00 in /  0 mm
05:53 9.0 °F /  -12.8 °C 1.2 °F /  -17.1 °C 30.32 in /  1026.6 hPa NNW 5.6 mph /  9 km/h 9.2 mph /  14.8 km/h 70 % 0.00 in /  0 mm
05:58 9.0 °F /  -12.8 °C 1.2 °F /  -17.1 °C 30.33 in /  1027 hPa NNW 6.8 mph /  10.9 km/h 10.4 mph /  16.7 km/h 70 % 0.00 in /  0 mm
06:01 9.0 °F /  -12.8 °C 1.2 °F /  -17.1 °C 30.33 in /  1027 hPa NW 5.0 mph /  8 km/h 9.2 mph /  14.8 km/h 70 % 0.00 in /  0 mm
06:02 9.0 °F /  -12.8 °C 1.5 °F /  -16.9 °C 30.33 in /  1027 hPa NNW 4.8 mph /  7.7 km/h 6.9 mph /  11.1 km/h 71 % 0.00 in /  0 mm
06:07 9.0 °F /  -12.8 °C 1.2 °F /  -17.1 °C 30.33 in /  1027 hPa NW 5.0 mph /  8 km/h 5.0 mph /  8 km/h 70 % 0.00 in /  0 mm
06:09 9.0 °F /  -12.8 °C 1.2 °F /  -17.1 °C 30.33 in /  1027 hPa WNW 5.1 mph /  8.2 km/h 6.0 mph /  9.7 km/h 70 % 0.00 in /  0 mm
06:14 9.0 °F /  -12.8 °C 1.2 °F /  -17.1 °C 30.33 in /  1027 hPa NW 4.2 mph /  6.8 km/h 8.1 mph /  13 km/h 70 % 0.00 in /  0 mm
06:16 9.0 °F /  -12.8 °C 1.2 °F /  -17.1 °C 30.34 in /  1027.3 hPa NNW 8.3 mph /  13.4 km/h 13.8 mph /  22.2 km/h 70 % 0.00 in /  0 mm
06:21 8.9 °F /  -12.8 °C 1.1 °F /  -17.2 °C 30.34 in /  1027.3 hPa NW 6.5 mph /  10.5 km/h 11.0 mph /  17.7 km/h 70 % 0.00 in /  0 mm
06:23 8.9 °F /  -12.8 °C 1.1 °F /  -17.2 °C 30.34 in /  1027.3 hPa NW 4.5 mph /  7.2 km/h 10.4 mph /  16.7 km/h 70 % 0.00 in /  0 mm
06:26 8.9 °F /  -12.8 °C 1.1 °F /  -17.2 °C 30.34 in /  1027.3 hPa NNW 5.7 mph /  9.2 km/h 12.0 mph /  19.3 km/h 70 % 0.00 in /  0 mm
06:28 8.9 °F /  -12.8 °C 1.4 °F /  -17 °C 30.34 in /  1027.3 hPa NW 6.3 mph /  10.1 km/h 12.7 mph /  20.4 km/h 71 % 0.00 in /  0 mm
06:34 8.9 °F /  -12.8 °C 1.1 °F /  -17.2 °C 30.34 in /  1027.3 hPa NW 6.0 mph /  9.7 km/h 11.5 mph /  18.5 km/h 70 % 0.00 in /  0 mm
06:38 8.9 °F /  -12.8 °C 0.8 °F /  -17.3 °C 30.34 in /  1027.3 hPa NW 5.4 mph /  8.7 km/h 11.5 mph /  18.5 km/h 69 % 0.00 in /  0 mm
06:43 8.8 °F /  -12.9 °C 0.7 °F /  -17.4 °C 30.34 in /  1027.3 hPa NNW 5.2 mph /  8.4 km/h 12.7 mph /  20.4 km/h 69 % 0.00 in /  0 mm
06:48 8.8 °F /  -12.9 °C 0.7 °F /  -17.4 °C 30.34 in /  1027.3 hPa NNW 5.5 mph /  8.9 km/h 10.4 mph /  16.7 km/h 69 % 0.00 in /  0 mm
06:53 8.8 °F /  -12.9 °C 0.7 °F /  -17.4 °C 30.34 in /  1027.3 hPa NW 4.6 mph /  7.4 km/h 4.6 mph /  7.4 km/h 69 % 0.00 in /  0 mm
06:54 8.8 °F /  -12.9 °C 0.7 °F /  -17.4 °C 30.35 in /  1027.7 hPa North 5.1 mph /  8.2 km/h 8.0 mph /  12.9 km/h 69 % 0.00 in /  0 mm
06:59 8.7 °F /  -12.9 °C 0.9 °F /  -17.3 °C 30.35 in /  1027.7 hPa NW 4.9 mph /  7.9 km/h 13.8 mph /  22.2 km/h 70 % 0.00 in /  0 mm
07:04 8.7 °F /  -12.9 °C 0.9 °F /  -17.3 °C 30.34 in /  1027.3 hPa North 4.9 mph /  7.9 km/h 11.5 mph /  18.5 km/h 70 % 0.00 in /  0 mm
07:09 8.6 °F /  -13 °C 1.1 °F /  -17.2 °C 30.35 in /  1027.7 hPa NW 6.2 mph /  10 km/h 11.0 mph /  17.7 km/h 71 % 0.00 in /  0 mm
07:12 8.7 °F /  -12.9 °C 1.2 °F /  -17.1 °C 30.35 in /  1027.7 hPa WNW 5.3 mph /  8.5 km/h 8.1 mph /  13 km/h 71 % 0.00 in /  0 mm
07:18 8.6 °F /  -13 °C 1.1 °F /  -17.2 °C 30.35 in /  1027.7 hPa NNW 3.6 mph /  5.8 km/h 5.0 mph /  8 km/h 71 % 0.00 in /  0 mm
07:23 8.6 °F /  -13 °C 1.4 °F /  -17 °C 30.35 in /  1027.7 hPa NNW 3.2 mph /  5.1 km/h 7.0 mph /  11.3 km/h 72 % 0.00 in /  0 mm
07:25 8.6 °F /  -13 °C 1.4 °F /  -17 °C 30.35 in /  1027.7 hPa NW 5.1 mph /  8.2 km/h 6.9 mph /  11.1 km/h 72 % 0.00 in /  0 mm
07:30 8.6 °F /  -13 °C 1.1 °F /  -17.2 °C 30.35 in /  1027.7 hPa NW 5.1 mph /  8.2 km/h 9.2 mph /  14.8 km/h 71 % 0.00 in /  0 mm
07:35 8.6 °F /  -13 °C 0.8 °F /  -17.3 °C 30.35 in /  1027.7 hPa NNW 5.2 mph /  8.4 km/h 10.4 mph /  16.7 km/h 70 % 0.00 in /  0 mm
07:38 8.6 °F /  -13 °C 0.8 °F /  -17.3 °C 30.35 in /  1027.7 hPa NW 3.7 mph /  6 km/h 8.0 mph /  12.9 km/h 70 % 0.00 in /  0 mm
07:43 8.5 °F /  -13.1 °C 0.4 °F /  -17.6 °C 30.35 in /  1027.7 hPa NW 4.3 mph /  6.9 km/h 8.1 mph /  13 km/h 69 % 0.00 in /  0 mm
07:48 8.5 °F /  -13.1 °C 0.4 °F /  -17.6 °C 30.35 in /  1027.7 hPa NW 3.2 mph /  5.1 km/h 5.8 mph /  9.3 km/h 69 % 0.00 in /  0 mm
07:49 8.5 °F /  -13.1 °C 0.4 °F /  -17.6 °C 30.35 in /  1027.7 hPa WNW 3.5 mph /  5.6 km/h 6.0 mph /  9.7 km/h 69 % 0.00 in /  0 mm
07:54 8.6 °F /  -13 °C 0.8 °F /  -17.3 °C 30.35 in /  1027.7 hPa NNW 4.7 mph /  7.6 km/h 10.4 mph /  16.7 km/h 70 % 0.00 in /  0 mm
07:59 8.5 °F /  -13.1 °C 0.4 °F /  -17.6 °C 30.35 in /  1027.7 hPa NW 5.5 mph /  8.9 km/h 10.4 mph /  16.7 km/h 69 % 0.00 in /  0 mm
08:03 8.6 °F /  -13 °C 0.8 °F /  -17.3 °C 30.35 in /  1027.7 hPa NNW 3.3 mph /  5.3 km/h 8.1 mph /  13 km/h 70 % 0.00 in /  0 mm
08:06 8.6 °F /  -13 °C 1.1 °F /  -17.2 °C 30.36 in /  1028 hPa NW 2.3 mph /  3.7 km/h 6.9 mph /  11.1 km/h 71 % 0.00 in /  0 mm
08:09 8.7 °F /  -12.9 °C 1.5 °F /  -16.9 °C 30.36 in /  1028 hPa NW 3.0 mph /  4.8 km/h 4.6 mph /  7.4 km/h 72 % 0.00 in /  0 mm
08:14 8.7 °F /  -12.9 °C 1.5 °F /  -16.9 °C 30.36 in /  1028 hPa NW 1.1 mph /  1.8 km/h 6.9 mph /  11.1 km/h 72 % 0.00 in /  0 mm
08:19 8.7 °F /  -12.9 °C 1.5 °F /  -16.9 °C 30.36 in /  1028 hPa NW 5.7 mph /  9.2 km/h 8.1 mph /  13 km/h 72 % 0.00 in /  0 mm
08:22 8.8 °F /  -12.9 °C 1.6 °F /  -16.9 °C 30.36 in /  1028 hPa WNW 4.1 mph /  6.6 km/h 6.9 mph /  11.1 km/h 72 % 0.00 in /  0 mm
08:27 8.8 °F /  -12.9 °C 1.6 °F /  -16.9 °C 30.36 in /  1028 hPa WNW 2.7 mph /  4.3 km/h 8.1 mph /  13 km/h 72 % 0.00 in /  0 mm
08:33 8.9 °F /  -12.8 °C 1.7 °F /  -16.8 °C 30.37 in /  1028.3 hPa NNW 3.5 mph /  5.6 km/h 3.5 mph /  5.6 km/h 72 % 0.00 in /  0 mm
08:34 8.9 °F /  -12.8 °C 1.7 °F /  -16.8 °C 30.37 in /  1028.3 hPa NW 2.8 mph /  4.5 km/h 6.9 mph /  11.1 km/h 72 % 0.00 in /  0 mm
08:39 9.0 °F /  -12.8 °C 1.8 °F /  -16.8 °C 30.37 in /  1028.3 hPa West 1.8 mph /  2.9 km/h 3.5 mph /  5.6 km/h 72 % 0.00 in /  0 mm
08:43 9.1 °F /  -12.7 °C 1.9 °F /  -16.7 °C 30.37 in /  1028.3 hPa West 5.1 mph /  8.2 km/h 8.1 mph /  13 km/h 72 % 0.00 in /  0 mm
08:48 9.2 °F /  -12.7 °C 1.7 °F /  -16.8 °C 30.37 in /  1028.3 hPa NW 5.4 mph /  8.7 km/h 8.1 mph /  13 km/h 71 % 0.00 in /  0 mm
08:53 9.2 °F /  -12.7 °C 1.4 °F /  -17 °C 30.37 in /  1028.3 hPa NW 2.7 mph /  4.3 km/h 8.1 mph /  13 km/h 70 % 0.00 in /  0 mm
08:58 9.3 °F /  -12.6 °C 1.5 °F /  -16.9 °C 30.37 in /  1028.3 hPa WSW 6.0 mph /  9.7 km/h 8.1 mph /  13 km/h 70 % 0.00 in /  0 mm
09:00 9.4 °F /  -12.6 °C 1.6 °F /  -16.9 °C 30.37 in /  1028.3 hPa WSW 6.0 mph /  9.7 km/h 6.0 mph /  9.7 km/h 70 % 0.00 in /  0 mm
09:05 9.4 °F /  -12.6 °C 1.3 °F /  -17.1 °C 30.37 in /  1028.3 hPa NW 2.8 mph /  4.5 km/h 4.6 mph /  7.4 km/h 69 % 0.00 in /  0 mm
09:07 9.4 °F /  -12.6 °C 1.3 °F /  -17.1 °C 30.37 in /  1028.3 hPa WNW 3.4 mph /  5.5 km/h 8.1 mph /  13 km/h 69 % 0.00 in /  0 mm
09:13 9.5 °F /  -12.5 °C 1.7 °F /  -16.8 °C 30.37 in /  1028.3 hPa WNW 5.3 mph /  8.5 km/h 6.9 mph /  11.1 km/h 70 % 0.00 in /  0 mm
09:18 9.7 °F /  -12.4 °C 1.9 °F /  -16.7 °C 30.37 in /  1028.3 hPa NNW 5.4 mph /  8.7 km/h 9.2 mph /  14.8 km/h 70 % 0.00 in /  0 mm
09:21 9.8 °F /  -12.3 °C 2.0 °F /  -16.7 °C 30.37 in /  1028.3 hPa NNW 2.1 mph /  3.4 km/h 3.5 mph /  5.6 km/h 70 % 0.00 in /  0 mm
09:26 9.9 °F /  -12.3 °C 2.1 °F /  -16.6 °C 30.37 in /  1028.3 hPa WNW 3.3 mph /  5.3 km/h 7.0 mph /  11.3 km/h 70 % 0.00 in /  0 mm
09:31 10.1 °F /  -12.2 °C 2.3 °F /  -16.5 °C 30.37 in /  1028.3 hPa WNW 5.0 mph /  8 km/h 9.2 mph /  14.8 km/h 70 % 0.00 in /  0 mm
09:36 10.2 °F /  -12.1 °C 2.4 °F /  -16.4 °C 30.37 in /  1028.3 hPa WNW 2.0 mph /  3.2 km/h 6.9 mph /  11.1 km/h 70 % 0.00 in /  0 mm
09:41 10.4 °F /  -12 °C 2.5 °F /  -16.4 °C 30.37 in /  1028.3 hPa NW 5.6 mph /  9 km/h 8.0 mph /  12.9 km/h 70 % 0.00 in /  0 mm
09:43 10.4 °F /  -12 °C 2.2 °F /  -16.6 °C 30.38 in /  1028.7 hPa NW 3.2 mph /  5.1 km/h 8.1 mph /  13 km/h 69 % 0.00 in /  0 mm
09:48 10.7 °F /  -11.8 °C 2.2 °F /  -16.6 °C 30.38 in /  1028.7 hPa WNW 4.3 mph /  6.9 km/h 8.1 mph /  13 km/h 68 % 0.00 in /  0 mm
09:53 10.9 °F /  -11.7 °C 2.4 °F /  -16.4 °C 30.38 in /  1028.7 hPa NNW 3.3 mph /  5.3 km/h 11.5 mph /  18.5 km/h 68 % 0.00 in /  0 mm
09:58 11.2 °F /  -11.6 °C 2.4 °F /  -16.4 °C 30.38 in /  1028.7 hPa NNW 1.6 mph /  2.6 km/h 9.2 mph /  14.8 km/h 67 % 0.00 in /  0 mm
10:02 11.4 °F /  -11.4 °C 2.6 °F /  -16.3 °C 30.38 in /  1028.7 hPa NE 3.0 mph /  4.8 km/h 7.0 mph /  11.3 km/h 67 % 0.00 in /  0 mm
10:07 11.7 °F /  -11.3 °C 2.5 °F /  -16.4 °C 30.38 in /  1028.7 hPa NNW 3.0 mph /  4.8 km/h 8.1 mph /  13 km/h 66 % 0.00 in /  0 mm
10:10 11.8 °F /  -11.2 °C 2.3 °F /  -16.5 °C 30.37 in /  1028.3 hPa WNW 3.1 mph /  5 km/h 5.8 mph /  9.3 km/h 65 % 0.00 in /  0 mm
10:15 12.1 °F /  -11.1 °C 2.6 °F /  -16.3 °C 30.37 in /  1028.3 hPa WNW 2.8 mph /  4.5 km/h 4.6 mph /  7.4 km/h 65 % 0.00 in /  0 mm
10:16 12.1 °F /  -11.1 °C 2.6 °F /  -16.3 °C 30.37 in /  1028.3 hPa WNW 2.4 mph /  3.9 km/h 4.6 mph /  7.4 km/h 65 % 0.00 in /  0 mm
10:18 12.3 °F /  -10.9 °C 3.1 °F /  -16.1 °C 30.37 in /  1028.3 hPa North 2.9 mph /  4.7 km/h 3.5 mph /  5.6 km/h 66 % 0.00 in /  0 mm
10:21 12.5 °F /  -10.8 °C 3.3 °F /  -15.9 °C 30.37 in /  1028.3 hPa NW 3.4 mph /  5.5 km/h 6.9 mph /  11.1 km/h 66 % 0.00 in /  0 mm
10:25 12.7 °F /  -10.7 °C 3.1 °F /  -16.1 °C 30.37 in /  1028.3 hPa NW 3.8 mph /  6.1 km/h 5.8 mph /  9.3 km/h 65 % 0.00 in /  0 mm
10:30 13.0 °F /  -10.6 °C 4.1 °F /  -15.5 °C 30.37 in /  1028.3 hPa NW 4.7 mph /  7.6 km/h 6.0 mph /  9.7 km/h 67 % 0.00 in /  0 mm
10:35 13.2 °F /  -10.4 °C 3.3 °F /  -15.9 °C 30.37 in /  1028.3 hPa North 2.6 mph /  4.2 km/h 4.6 mph /  7.4 km/h 64 % 0.00 in /  0 mm
10:38 13.2 °F /  -10.4 °C 3.6 °F /  -15.8 °C 30.37 in /  1028.3 hPa NW 4.0 mph /  6.4 km/h 5.8 mph /  9.3 km/h 65 % 0.00 in /  0 mm
10:41 13.3 °F /  -10.4 °C 3.7 °F /  -15.7 °C 30.37 in /  1028.3 hPa North 3.1 mph /  5 km/h 5.8 mph /  9.3 km/h 65 % 0.00 in /  0 mm
10:45 13.4 °F /  -10.3 °C 3.8 °F /  -15.7 °C 30.37 in /  1028.3 hPa WNW 3.4 mph /  5.5 km/h 6.9 mph /  11.1 km/h 65 % 0.00 in /  0 mm
10:48 13.4 °F /  -10.3 °C 3.5 °F /  -15.8 °C 30.37 in /  1028.3 hPa NNW 4.5 mph /  7.2 km/h 9.0 mph /  14.5 km/h 64 % 0.00 in /  0 mm
10:49 13.5 °F /  -10.3 °C 3.9 °F /  -15.6 °C 30.37 in /  1028.3 hPa NW 5.7 mph /  9.2 km/h 9.2 mph /  14.8 km/h 65 % 0.00 in /  0 mm
10:54 13.6 °F /  -10.2 °C 4.0 °F /  -15.6 °C 30.36 in /  1028 hPa NNW 3.3 mph /  5.3 km/h 6.9 mph /  11.1 km/h 65 % 0.00 in /  0 mm
10:59 13.7 °F /  -10.2 °C 4.1 °F /  -15.5 °C 30.36 in /  1028 hPa NW 2.9 mph /  4.7 km/h 6.9 mph /  11.1 km/h 65 % 0.00 in /  0 mm
11:04 13.6 °F /  -10.2 °C 3.3 °F /  -15.9 °C 30.36 in /  1028 hPa NW 2.0 mph /  3.2 km/h 6.9 mph /  11.1 km/h 63 % 0.00 in /  0 mm
11:09 13.5 °F /  -10.3 °C 3.6 °F /  -15.8 °C 30.36 in /  1028 hPa NW 3.4 mph /  5.5 km/h 9.2 mph /  14.8 km/h 64 % 0.00 in /  0 mm
11:10 13.5 °F /  -10.3 °C 3.6 °F /  -15.8 °C 30.35 in /  1027.7 hPa North 2.4 mph /  3.9 km/h 5.8 mph /  9.3 km/h 64 % 0.00 in /  0 mm
11:15 13.5 °F /  -10.3 °C 3.6 °F /  -15.8 °C 30.35 in /  1027.7 hPa WNW 4.2 mph /  6.8 km/h 6.9 mph /  11.1 km/h 64 % 0.00 in /  0 mm
11:18 13.5 °F /  -10.3 °C 3.6 °F /  -15.8 °C 30.35 in /  1027.7 hPa NNW 3.5 mph /  5.6 km/h 6.0 mph /  9.7 km/h 64 % 0.00 in /  0 mm
11:22 13.5 °F /  -10.3 °C 2.9 °F /  -16.2 °C 30.35 in /  1027.7 hPa WNW 4.3 mph /  6.9 km/h 9.0 mph /  14.5 km/h 62 % 0.00 in /  0 mm
11:27 13.4 °F /  -10.3 °C 3.1 °F /  -16.1 °C 30.35 in /  1027.7 hPa West 2.3 mph /  3.7 km/h 5.8 mph /  9.3 km/h 63 % 0.00 in /  0 mm
11:29 13.3 °F /  -10.4 °C 2.7 °F /  -16.3 °C 30.36 in /  1028 hPa West 1.8 mph /  2.9 km/h 4.6 mph /  7.4 km/h 62 % 0.00 in /  0 mm
11:34 13.3 °F /  -10.4 °C 2.3 °F /  -16.5 °C 30.35 in /  1027.7 hPa NW 2.9 mph /  4.7 km/h 9.2 mph /  14.8 km/h 61 % 0.00 in /  0 mm
11:36 13.4 °F /  -10.3 °C 2.4 °F /  -16.4 °C 30.35 in /  1027.7 hPa NW 2.1 mph /  3.4 km/h 5.8 mph /  9.3 km/h 61 % 0.00 in /  0 mm
11:38 13.3 °F /  -10.4 °C 2.0 °F /  -16.7 °C 30.35 in /  1027.7 hPa NW 6.2 mph /  10 km/h 8.1 mph /  13 km/h 60 % 0.00 in /  0 mm
11:44 13.2 °F /  -10.4 °C 1.5 °F /  -16.9 °C 30.35 in /  1027.7 hPa WSW 3.5 mph /  5.6 km/h 6.9 mph /  11.1 km/h 59 % 0.00 in /  0 mm
11:49 13.2 °F /  -10.4 °C 1.9 °F /  -16.7 °C 30.35 in /  1027.7 hPa NW 3.1 mph /  5 km/h 6.9 mph /  11.1 km/h 60 % 0.00 in /  0 mm
11:50 13.2 °F /  -10.4 °C 2.3 °F /  -16.5 °C 30.34 in /  1027.3 hPa West 4.6 mph /  7.4 km/h 6.9 mph /  11.1 km/h 61 % 0.00 in /  0 mm
11:55 13.3 °F /  -10.4 °C 1.6 °F /  -16.9 °C 30.34 in /  1027.3 hPa WSW 5.7 mph /  9.2 km/h 8.1 mph /  13 km/h 59 % 0.00 in /  0 mm
11:58 13.4 °F /  -10.3 °C 2.1 °F /  -16.6 °C 30.34 in /  1027.3 hPa WNW 4.1 mph /  6.6 km/h 8.1 mph /  13 km/h 60 % 0.00 in /  0 mm
12:03 13.4 °F /  -10.3 °C 1.7 °F /  -16.8 °C 30.34 in /  1027.3 hPa NW 4.6 mph /  7.4 km/h 6.9 mph /  11.1 km/h 59 % 0.00 in /  0 mm
12:04 13.5 °F /  -10.3 °C 1.8 °F /  -16.8 °C 30.34 in /  1027.3 hPa NW 4.0 mph /  6.4 km/h 8.1 mph /  13 km/h 59 % 0.00 in /  0 mm
12:07 13.6 °F /  -10.2 °C 2.3 °F /  -16.5 °C 30.34 in /  1027.3 hPa WSW 3.7 mph /  6 km/h 4.6 mph /  7.4 km/h 60 % 0.00 in /  0 mm
12:12 13.7 °F /  -10.2 °C 2.4 °F /  -16.4 °C 30.34 in /  1027.3 hPa West 0.9 mph /  1.4 km/h 4.6 mph /  7.4 km/h 60 % 0.00 in /  0 mm
12:13 13.8 °F /  -10.1 °C 2.5 °F /  -16.4 °C 30.34 in /  1027.3 hPa North 1.2 mph /  1.9 km/h 4.0 mph /  6.4 km/h 60 % 0.00 in /  0 mm
12:14 14.0 °F /  -10 °C 2.7 °F /  -16.3 °C 30.33 in /  1027 hPa NW 2.2 mph /  3.5 km/h 3.5 mph /  5.6 km/h 60 % 0.00 in /  0 mm
12:18 14.1 °F /  -9.9 °C 2.7 °F /  -16.3 °C 30.33 in /  1027 hPa NNW 1.4 mph /  2.3 km/h 3.5 mph /  5.6 km/h 60 % 0.00 in /  0 mm
12:22 14.4 °F /  -9.8 °C 3.4 °F /  -15.9 °C 30.33 in /  1027 hPa WSW 3.7 mph /  6 km/h 6.9 mph /  11.1 km/h 61 % 0.00 in /  0 mm
12:23 14.5 °F /  -9.7 °C 3.5 °F /  -15.8 °C 30.33 in /  1027 hPa NW 2.9 mph /  4.7 km/h 5.0 mph /  8 km/h 61 % 0.00 in /  0 mm
12:28 15.1 °F /  -9.4 °C 3.0 °F /  -16.1 °C 30.33 in /  1027 hPa NNW 3.2 mph /  5.1 km/h 6.9 mph /  11.1 km/h 58 % 0.00 in /  0 mm
12:33 15.7 °F /  -9.1 °C 3.5 °F /  -15.8 °C 30.33 in /  1027 hPa NNW 4.9 mph /  7.9 km/h 11.5 mph /  18.5 km/h 58 % 0.00 in /  0 mm
12:36 16.1 °F /  -8.8 °C 3.5 °F /  -15.8 °C 30.33 in /  1027 hPa WNW 6.2 mph /  10 km/h 15.0 mph /  24.1 km/h 57 % 0.00 in /  0 mm
12:41 16.4 °F /  -8.7 °C 2.6 °F /  -16.3 °C 30.33 in /  1027 hPa NNW 6.9 mph /  11.1 km/h 11.5 mph /  18.5 km/h 54 % 0.00 in /  0 mm
12:47 16.6 °F /  -8.6 °C 2.8 °F /  -16.2 °C 30.33 in /  1027 hPa NNW 4.2 mph /  6.8 km/h 5.8 mph /  9.3 km/h 54 % 0.00 in /  0 mm
12:51 16.8 °F /  -8.4 °C 3.0 °F /  -16.1 °C 30.33 in /  1027 hPa WSW 4.8 mph /  7.7 km/h 11.5 mph /  18.5 km/h 54 % 0.00 in /  0 mm
12:56 16.9 °F /  -8.4 °C 2.7 °F /  -16.3 °C 30.33 in /  1027 hPa North 5.8 mph /  9.3 km/h 8.1 mph /  13 km/h 53 % 0.00 in /  0 mm
12:58 17.0 °F /  -8.3 °C 2.8 °F /  -16.2 °C 30.33 in /  1027 hPa WNW 4.8 mph /  7.7 km/h 8.1 mph /  13 km/h 53 % 0.00 in /  0 mm
13:03 17.0 °F /  -8.3 °C 2.4 °F /  -16.4 °C 30.32 in /  1026.6 hPa WNW 4.3 mph /  6.9 km/h 11.0 mph /  17.7 km/h 52 % 0.00 in /  0 mm
13:04 17.1 °F /  -8.3 °C 2.5 °F /  -16.4 °C 30.32 in /  1026.6 hPa NW 5.5 mph /  8.9 km/h 12.7 mph /  20.4 km/h 52 % 0.00 in /  0 mm
13:07 17.2 °F /  -8.2 °C 3.0 °F /  -16.1 °C 30.32 in /  1026.6 hPa North 6.2 mph /  10 km/h 12.7 mph /  20.4 km/h 53 % 0.00 in /  0 mm
13:12 17.3 °F /  -8.2 °C 3.1 °F /  -16.1 °C 30.32 in /  1026.6 hPa WSW 4.3 mph /  6.9 km/h 11.5 mph /  18.5 km/h 53 % 0.00 in /  0 mm
13:17 17.5 °F /  -8.1 °C 2.8 °F /  -16.2 °C 30.32 in /  1026.6 hPa WNW 2.6 mph /  4.2 km/h 12.0 mph /  19.3 km/h 52 % 0.00 in /  0 mm
13:19 17.5 °F /  -8.1 °C 2.8 °F /  -16.2 °C 30.32 in /  1026.6 hPa NW 6.3 mph /  10.1 km/h 12.0 mph /  19.3 km/h 52 % 0.00 in /  0 mm
13:24 17.6 °F /  -8 °C 3.3 °F /  -15.9 °C 30.32 in /  1026.6 hPa WNW 6.8 mph /  10.9 km/h 9.2 mph /  14.8 km/h 53 % 0.00 in /  0 mm
13:29 17.7 °F /  -7.9 °C 3.0 °F /  -16.1 °C 30.32 in /  1026.6 hPa WNW 4.6 mph /  7.4 km/h 11.5 mph /  18.5 km/h 52 % 0.00 in /  0 mm
13:31 17.7 °F /  -7.9 °C 3.0 °F /  -16.1 °C 30.32 in /  1026.6 hPa West 4.7 mph /  7.6 km/h 8.1 mph /  13 km/h 52 % 0.00 in /  0 mm
13:32 17.7 °F /  -7.9 °C 3.4 °F /  -15.9 °C 30.32 in /  1026.6 hPa West 4.9 mph /  7.9 km/h 6.9 mph /  11.1 km/h 53 % 0.00 in /  0 mm
13:36 17.8 °F /  -7.9 °C 2.3 °F /  -16.5 °C 30.32 in /  1026.6 hPa NW 8.8 mph /  14.2 km/h 19.6 mph /  31.5 km/h 50 % 0.00 in /  0 mm
13:41 17.7 °F /  -7.9 °C 2.2 °F /  -16.6 °C 30.32 in /  1026.6 hPa NNW 7.2 mph /  11.6 km/h 12.7 mph /  20.4 km/h 50 % 0.00 in /  0 mm
13:43 17.7 °F /  -7.9 °C 2.2 °F /  -16.6 °C 30.32 in /  1026.6 hPa NNE 4.0 mph /  6.4 km/h 8.1 mph /  13 km/h 50 % 0.00 in /  0 mm
13:48 17.8 °F /  -7.9 °C 2.7 °F /  -16.3 °C 30.32 in /  1026.6 hPa WNW 6.4 mph /  10.3 km/h 11.5 mph /  18.5 km/h 51 % 0.00 in /  0 mm
13:49 17.8 °F /  -7.9 °C 2.7 °F /  -16.3 °C 30.32 in /  1026.6 hPa NNW 6.3 mph /  10.1 km/h 11.5 mph /  18.5 km/h 51 % 0.00 in /  0 mm
13:50 17.8 °F /  -7.9 °C 2.3 °F /  -16.5 °C 30.32 in /  1026.6 hPa WNW 7.1 mph /  11.4 km/h 11.5 mph /  18.5 km/h 50 % 0.00 in /  0 mm
13:55 17.8 °F /  -7.9 °C 2.3 °F /  -16.5 °C 30.32 in /  1026.6 hPa NNW 7.3 mph /  11.7 km/h 13.8 mph /  22.2 km/h 50 % 0.00 in /  0 mm
13:58 17.9 °F /  -7.8 °C 2.8 °F /  -16.2 °C 30.32 in /  1026.6 hPa NNW 3.8 mph /  6.1 km/h 9.2 mph /  14.8 km/h 51 % 0.00 in /  0 mm
14:03 18.0 °F /  -7.8 °C 2.5 °F /  -16.4 °C 30.32 in /  1026.6 hPa NW 6.9 mph /  11.1 km/h 12.7 mph /  20.4 km/h 50 % 0.00 in /  0 mm
14:08 18.0 °F /  -7.8 °C 2.5 °F /  -16.4 °C 30.32 in /  1026.6 hPa NNW 7.4 mph /  11.9 km/h 12.7 mph /  20.4 km/h 50 % 0.00 in /  0 mm
14:13 18.1 °F /  -7.7 °C 3.4 °F /  -15.9 °C 30.31 in /  1026.3 hPa NNW 7.3 mph /  11.7 km/h 13.8 mph /  22.2 km/h 52 % 0.00 in /  0 mm
14:15 18.1 °F /  -7.7 °C 3.0 °F /  -16.1 °C 30.31 in /  1026.3 hPa NNW 9.4 mph /  15.1 km/h 13.8 mph /  22.2 km/h 51 % 0.00 in /  0 mm
14:20 18.2 °F /  -7.7 °C 3.1 °F /  -16.1 °C 30.31 in /  1026.3 hPa NW 8.5 mph /  13.7 km/h 11.5 mph /  18.5 km/h 51 % 0.00 in /  0 mm
14:21 18.1 °F /  -7.7 °C 3.0 °F /  -16.1 °C 30.31 in /  1026.3 hPa WNW 7.2 mph /  11.6 km/h 11.5 mph /  18.5 km/h 51 % 0.00 in /  0 mm
14:26 18.0 °F /  -7.8 °C 2.5 °F /  -16.4 °C 30.31 in /  1026.3 hPa NW 7.8 mph /  12.6 km/h 16.1 mph /  25.9 km/h 50 % 0.00 in /  0 mm
14:31 17.9 °F /  -7.8 °C 2.4 °F /  -16.4 °C 30.31 in /  1026.3 hPa WNW 4.1 mph /  6.6 km/h 8.1 mph /  13 km/h 50 % 0.00 in /  0 mm
14:37 17.8 °F /  -7.9 °C 2.3 °F /  -16.5 °C 30.31 in /  1026.3 hPa NNW 4.1 mph /  6.6 km/h 11.5 mph /  18.5 km/h 50 % 0.00 in /  0 mm
14:39 17.8 °F /  -7.9 °C 2.7 °F /  -16.3 °C 30.32 in /  1026.6 hPa NW 4.5 mph /  7.2 km/h 9.2 mph /  14.8 km/h 51 % 0.00 in /  0 mm
14:44 17.8 °F /  -7.9 °C 2.3 °F /  -16.5 °C 30.31 in /  1026.3 hPa NNW 3.2 mph /  5.1 km/h 10.0 mph /  16.1 km/h 50 % 0.00 in /  0 mm
14:49 17.8 °F /  -7.9 °C 2.3 °F /  -16.5 °C 30.32 in /  1026.6 hPa NNW 5.8 mph /  9.3 km/h 12.7 mph /  20.4 km/h 50 % 0.00 in /  0 mm
14:54 17.8 °F /  -7.9 °C 2.7 °F /  -16.3 °C 30.32 in /  1026.6 hPa NW 7.8 mph /  12.6 km/h 13.0 mph /  20.9 km/h 51 % 0.00 in /  0 mm
14:56 17.8 °F /  -7.9 °C 2.3 °F /  -16.5 °C 30.31 in /  1026.3 hPa West 6.8 mph /  10.9 km/h 13.8 mph /  22.2 km/h 50 % 0.00 in /  0 mm
14:57 17.8 °F /  -7.9 °C 1.8 °F /  -16.8 °C 30.32 in /  1026.6 hPa NNW 3.2 mph /  5.1 km/h 9.2 mph /  14.8 km/h 49 % 0.00 in /  0 mm
15:02 17.8 °F /  -7.9 °C 2.3 °F /  -16.5 °C 30.31 in /  1026.3 hPa NW 5.1 mph /  8.2 km/h 10.4 mph /  16.7 km/h 50 % 0.00 in /  0 mm
15:03 17.8 °F /  -7.9 °C 2.3 °F /  -16.5 °C 30.32 in /  1026.6 hPa NNW 4.8 mph /  7.7 km/h 10.4 mph /  16.7 km/h 50 % 0.00 in /  0 mm
15:08 17.8 °F /  -7.9 °C 1.4 °F /  -17 °C 30.31 in /  1026.3 hPa WNW 4.7 mph /  7.6 km/h 9.2 mph /  14.8 km/h 48 % 0.00 in /  0 mm
15:09 17.8 °F /  -7.9 °C 1.8 °F /  -16.8 °C 30.31 in /  1026.3 hPa West 5.2 mph /  8.4 km/h 5.2 mph /  8.4 km/h 49 % 0.00 in /  0 mm
15:11 17.8 °F /  -7.9 °C 1.8 °F /  -16.8 °C 30.31 in /  1026.3 hPa SW 6.5 mph /  10.5 km/h 10.4 mph /  16.7 km/h 49 % 0.00 in /  0 mm
15:16 17.8 °F /  -7.9 °C 1.8 °F /  -16.8 °C 30.31 in /  1026.3 hPa NW 5.3 mph /  8.5 km/h 10.4 mph /  16.7 km/h 49 % 0.00 in /  0 mm
15:20 17.8 °F /  -7.9 °C 2.3 °F /  -16.5 °C 30.31 in /  1026.3 hPa NNW 7.1 mph /  11.4 km/h 11.5 mph /  18.5 km/h 50 % 0.00 in /  0 mm
15:25 17.8 °F /  -7.9 °C 1.8 °F /  -16.8 °C 30.31 in /  1026.3 hPa NNW 7.7 mph /  12.4 km/h 11.5 mph /  18.5 km/h 49 % 0.00 in /  0 mm
15:28 17.9 °F /  -7.8 °C 2.8 °F /  -16.2 °C 30.31 in /  1026.3 hPa NW 1.8 mph /  2.9 km/h 6.9 mph /  11.1 km/h 51 % 0.00 in /  0 mm
15:33 17.9 °F /  -7.8 °C 2.4 °F /  -16.4 °C 30.32 in /  1026.6 hPa NNW 4.8 mph /  7.7 km/h 8.1 mph /  13 km/h 50 % 0.00 in /  0 mm
15:38 17.8 °F /  -7.9 °C 1.8 °F /  -16.8 °C 30.32 in /  1026.6 hPa WNW 7.2 mph /  11.6 km/h 12.0 mph /  19.3 km/h 49 % 0.00 in /  0 mm
15:40 17.8 °F /  -7.9 °C 1.8 °F /  -16.8 °C 30.32 in /  1026.6 hPa NW 10.6 mph /  17.1 km/h 17.0 mph /  27.4 km/h 49 % 0.00 in /  0 mm
15:43 17.8 °F /  -7.9 °C 1.4 °F /  -17 °C 30.32 in /  1026.6 hPa NW 5.1 mph /  8.2 km/h 10.4 mph /  16.7 km/h 48 % 0.00 in /  0 mm
15:48 17.7 °F /  -7.9 °C 1.3 °F /  -17.1 °C 30.32 in /  1026.6 hPa WNW 8.7 mph /  14 km/h 12.7 mph /  20.4 km/h 48 % 0.00 in /  0 mm
15:53 17.6 °F /  -8 °C 1.7 °F /  -16.8 °C 30.32 in /  1026.6 hPa WNW 3.2 mph /  5.1 km/h 8.0 mph /  12.9 km/h 49 % 0.00 in /  0 mm
15:58 17.6 °F /  -8 °C 0.8 °F /  -17.3 °C 30.32 in /  1026.6 hPa NNW 3.2 mph /  5.1 km/h 9.2 mph /  14.8 km/h 47 % 0.00 in /  0 mm
16:01 17.6 °F /  -8 °C 1.2 °F /  -17.1 °C 30.31 in /  1026.3 hPa NNW 6.3 mph /  10.1 km/h 10.4 mph /  16.7 km/h 48 % 0.00 in /  0 mm
16:02 17.6 °F /  -8 °C 1.7 °F /  -16.8 °C 30.31 in /  1026.3 hPa North 7.3 mph /  11.7 km/h 10.0 mph /  16.1 km/h 49 % 0.00 in /  0 mm
16:07 17.6 °F /  -8 °C 2.1 °F /  -16.6 °C 30.32 in /  1026.6 hPa NNW 3.9 mph /  6.3 km/h 8.1 mph /  13 km/h 50 % 0.00 in /  0 mm
16:08 17.6 °F /  -8 °C 2.1 °F /  -16.6 °C 30.32 in /  1026.6 hPa NW 6.1 mph /  9.8 km/h 8.1 mph /  13 km/h 50 % 0.00 in /  0 mm
16:10 17.6 °F /  -8 °C 2.1 °F /  -16.6 °C 30.32 in /  1026.6 hPa WNW 3.2 mph /  5.1 km/h 7.0 mph /  11.3 km/h 50 % 0.00 in /  0 mm
16:16 17.5 °F /  -8.1 °C 1.6 °F /  -16.9 °C 30.32 in /  1026.6 hPa WNW 6.0 mph /  9.7 km/h 12.0 mph /  19.3 km/h 49 % 0.00 in /  0 mm
16:18 17.5 °F /  -8.1 °C 1.1 °F /  -17.2 °C 30.32 in /  1026.6 hPa NW 3.9 mph /  6.3 km/h 8.1 mph /  13 km/h 48 % 0.00 in /  0 mm
16:23 17.5 °F /  -8.1 °C 1.1 °F /  -17.2 °C 30.32 in /  1026.6 hPa NNW 5.2 mph /  8.4 km/h 9.0 mph /  14.5 km/h 48 % 0.00 in /  0 mm
16:26 17.5 °F /  -8.1 °C 1.1 °F /  -17.2 °C 30.32 in /  1026.6 hPa WSW 4.0 mph /  6.4 km/h 9.2 mph /  14.8 km/h 48 % 0.00 in /  0 mm
16:31 17.5 °F /  -8.1 °C 2.0 °F /  -16.7 °C 30.32 in /  1026.6 hPa WNW 4.5 mph /  7.2 km/h 10.4 mph /  16.7 km/h 50 % 0.00 in /  0 mm
16:38 17.6 °F /  -8 °C 1.2 °F /  -17.1 °C 30.32 in /  1026.6 hPa WNW 5.3 mph /  8.5 km/h 9.2 mph /  14.8 km/h 48 % 0.00 in /  0 mm
16:41 17.6 °F /  -8 °C 0.8 °F /  -17.3 °C 30.33 in /  1027 hPa WSW 4.6 mph /  7.4 km/h 9.2 mph /  14.8 km/h 47 % 0.00 in /  0 mm
16:46 17.6 °F /  -8 °C 0.8 °F /  -17.3 °C 30.33 in /  1027 hPa West 9.4 mph /  15.1 km/h 16.1 mph /  25.9 km/h 47 % 0.00 in /  0 mm
16:50 17.5 °F /  -8.1 °C 0.2 °F /  -17.7 °C 30.33 in /  1027 hPa NNW 6.9 mph /  11.1 km/h 11.5 mph /  18.5 km/h 46 % 0.00 in /  0 mm
16:54 17.6 °F /  -8 °C 1.2 °F /  -17.1 °C 30.33 in /  1027 hPa NW 4.6 mph /  7.4 km/h 11.0 mph /  17.7 km/h 48 % 0.00 in /  0 mm
16:59 17.6 °F /  -8 °C 1.2 °F /  -17.1 °C 30.32 in /  1026.6 hPa WNW 3.8 mph /  6.1 km/h 8.1 mph /  13 km/h 48 % 0.00 in /  0 mm
17:01 17.6 °F /  -8 °C 0.8 °F /  -17.3 °C 30.33 in /  1027 hPa WNW 10.1 mph /  16.3 km/h 17.0 mph /  27.4 km/h 47 % 0.00 in /  0 mm
17:06 17.6 °F /  -8 °C 0.3 °F /  -17.6 °C 30.32 in /  1026.6 hPa NW 7.6 mph /  12.2 km/h 15.0 mph /  24.1 km/h 46 % 0.00 in /  0 mm
17:07 17.6 °F /  -8 °C 0.8 °F /  -17.3 °C 30.33 in /  1027 hPa WSW 7.4 mph /  11.9 km/h 15.0 mph /  24.1 km/h 47 % 0.00 in /  0 mm
17:12 17.7 °F /  -7.9 °C 0.9 °F /  -17.3 °C 30.33 in /  1027 hPa NW 5.5 mph /  8.9 km/h 7.0 mph /  11.3 km/h 47 % 0.00 in /  0 mm
17:14 17.7 °F /  -7.9 °C 0.9 °F /  -17.3 °C 30.33 in /  1027 hPa WNW 5.5 mph /  8.9 km/h 13.8 mph /  22.2 km/h 47 % 0.00 in /  0 mm
17:16 17.7 °F /  -7.9 °C 0.9 °F /  -17.3 °C 30.33 in /  1027 hPa WNW 7.1 mph /  11.4 km/h 9.2 mph /  14.8 km/h 47 % 0.00 in /  0 mm
17:20 17.7 °F /  -7.9 °C 1.3 °F /  -17.1 °C 30.33 in /  1027 hPa WNW 4.2 mph /  6.8 km/h 6.9 mph /  11.1 km/h 48 % 0.00 in /  0 mm
17:25 17.7 °F /  -7.9 °C 1.3 °F /  -17.1 °C 30.33 in /  1027 hPa WNW 5.9 mph /  9.5 km/h 11.0 mph /  17.7 km/h 48 % 0.00 in /  0 mm
17:27 17.7 °F /  -7.9 °C 1.3 °F /  -17.1 °C 30.33 in /  1027 hPa NW 6.6 mph /  10.6 km/h 10.0 mph /  16.1 km/h 48 % 0.00 in /  0 mm
17:28 17.7 °F /  -7.9 °C 1.3 °F /  -17.1 °C 30.33 in /  1027 hPa South 4.4 mph /  7.1 km/h 10.4 mph /  16.7 km/h 48 % 0.00 in /  0 mm
17:33 17.7 °F /  -7.9 °C 1.3 °F /  -17.1 °C 30.34 in /  1027.3 hPa West 3.7 mph /  6 km/h 8.1 mph /  13 km/h 48 % 0.00 in /  0 mm
17:35 17.7 °F /  -7.9 °C 1.3 °F /  -17.1 °C 30.33 in /  1027 hPa NW 8.8 mph /  14.2 km/h 15.0 mph /  24.1 km/h 48 % 0.00 in /  0 mm
17:40 17.7 °F /  -7.9 °C 2.6 °F /  -16.3 °C 30.33 in /  1027 hPa West 3.4 mph /  5.5 km/h 8.0 mph /  12.9 km/h 51 % 0.00 in /  0 mm
17:45 17.7 °F /  -7.9 °C 2.2 °F /  -16.6 °C 30.33 in /  1027 hPa WSW 6.0 mph /  9.7 km/h 11.5 mph /  18.5 km/h 50 % 0.00 in /  0 mm
17:50 17.7 °F /  -7.9 °C 1.7 °F /  -16.8 °C 30.33 in /  1027 hPa WNW 7.0 mph /  11.3 km/h 13.8 mph /  22.2 km/h 49 % 0.00 in /  0 mm
17:55 17.7 °F /  -7.9 °C 1.7 °F /  -16.8 °C 30.33 in /  1027 hPa WSW 3.8 mph /  6.1 km/h 8.1 mph /  13 km/h 49 % 0.00 in /  0 mm
18:01 17.7 °F /  -7.9 °C 2.6 °F /  -16.3 °C 30.33 in /  1027 hPa NW 6.7 mph /  10.8 km/h 8.1 mph /  13 km/h 51 % 0.00 in /  0 mm
18:05 17.6 °F /  -8 °C 2.1 °F /  -16.6 °C 30.34 in /  1027.3 hPa NW 5.2 mph /  8.4 km/h 12.7 mph /  20.4 km/h 50 % 0.00 in /  0 mm
18:10 17.6 °F /  -8 °C 2.1 °F /  -16.6 °C 30.34 in /  1027.3 hPa WNW 4.6 mph /  7.4 km/h 13.0 mph /  20.9 km/h 50 % 0.00 in /  0 mm
18:15 17.7 °F /  -7.9 °C 2.6 °F /  -16.3 °C 30.33 in /  1027 hPa WSW 4.3 mph /  6.9 km/h 8.1 mph /  13 km/h 51 % 0.00 in /  0 mm
18:20 17.7 °F /  -7.9 °C 2.2 °F /  -16.6 °C 30.34 in /  1027.3 hPa WNW 5.0 mph /  8 km/h 8.0 mph /  12.9 km/h 50 % 0.00 in /  0 mm
18:22 17.7 °F /  -7.9 °C 2.6 °F /  -16.3 °C 30.33 in /  1027 hPa WNW 3.1 mph /  5 km/h 11.5 mph /  18.5 km/h 51 % 0.00 in /  0 mm
18:28 17.7 °F /  -7.9 °C 2.6 °F /  -16.3 °C 30.34 in /  1027.3 hPa WNW 7.4 mph /  11.9 km/h 13.0 mph /  20.9 km/h 51 % 0.00 in /  0 mm
18:30 17.8 °F /  -7.9 °C 2.7 °F /  -16.3 °C 30.34 in /  1027.3 hPa West 6.0 mph /  9.7 km/h 11.5 mph /  18.5 km/h 51 % 0.00 in /  0 mm
18:31 17.8 °F /  -7.9 °C 2.7 °F /  -16.3 °C 30.34 in /  1027.3 hPa NW 6.9 mph /  11.1 km/h 15.0 mph /  24.1 km/h 51 % 0.00 in /  0 mm
18:36 17.8 °F /  -7.9 °C 2.3 °F /  -16.5 °C 30.34 in /  1027.3 hPa WNW 3.7 mph /  6 km/h 8.1 mph /  13 km/h 50 % 0.00 in /  0 mm
18:37 17.8 °F /  -7.9 °C 2.3 °F /  -16.5 °C 30.34 in /  1027.3 hPa West 3.8 mph /  6.1 km/h 8.1 mph /  13 km/h 50 % 0.00 in /  0 mm
18:39 17.8 °F /  -7.9 °C 2.7 °F /  -16.3 °C 30.34 in /  1027.3 hPa West 3.3 mph /  5.3 km/h 5.8 mph /  9.3 km/h 51 % 0.00 in /  0 mm
18:44 17.8 °F /  -7.9 °C 2.7 °F /  -16.3 °C 30.34 in /  1027.3 hPa West 2.2 mph /  3.5 km/h 8.1 mph /  13 km/h 51 % 0.00 in /  0 mm
18:49 17.8 °F /  -7.9 °C 2.7 °F /  -16.3 °C 30.34 in /  1027.3 hPa West 5.2 mph /  8.4 km/h 13.8 mph /  22.2 km/h 51 % 0.00 in /  0 mm
18:51 17.9 °F /  -7.8 °C 2.4 °F /  -16.4 °C 30.34 in /  1027.3 hPa WSW 6.6 mph /  10.6 km/h 12.7 mph /  20.4 km/h 50 % 0.00 in /  0 mm
18:56 17.9 °F /  -7.8 °C 2.4 °F /  -16.4 °C 30.34 in /  1027.3 hPa West 4.9 mph /  7.9 km/h 15.0 mph /  24.1 km/h 50 % 0.00 in /  0 mm
19:01 17.9 °F /  -7.8 °C 2.4 °F /  -16.4 °C 30.34 in /  1027.3 hPa West 4.0 mph /  6.4 km/h 12.7 mph /  20.4 km/h 50 % 0.00 in /  0 mm
19:02 17.9 °F /  -7.8 °C 2.4 °F /  -16.4 °C 30.34 in /  1027.3 hPa WNW 4.8 mph /  7.7 km/h 10.4 mph /  16.7 km/h 50 % 0.00 in /  0 mm
19:07 17.9 °F /  -7.8 °C 2.4 °F /  -16.4 °C 30.34 in /  1027.3 hPa West 6.9 mph /  11.1 km/h 13.8 mph /  22.2 km/h 50 % 0.00 in /  0 mm
19:08 17.9 °F /  -7.8 °C 2.4 °F /  -16.4 °C 30.34 in /  1027.3 hPa WNW 6.9 mph /  11.1 km/h 13.8 mph /  22.2 km/h 50 % 0.00 in /  0 mm
19:13 18.0 °F /  -7.8 °C 2.5 °F /  -16.4 °C 30.34 in /  1027.3 hPa SW 4.2 mph /  6.8 km/h 8.1 mph /  13 km/h 50 % 0.00 in /  0 mm
19:15 18.0 °F /  -7.8 °C 2.5 °F /  -16.4 °C 30.33 in /  1027 hPa WNW 6.5 mph /  10.5 km/h 11.5 mph /  18.5 km/h 50 % 0.00 in /  0 mm
19:20 18.0 °F /  -7.8 °C 2.5 °F /  -16.4 °C 30.33 in /  1027 hPa WNW 5.6 mph /  9 km/h 10.4 mph /  16.7 km/h 50 % 0.00 in /  0 mm
19:21 18.0 °F /  -7.8 °C 2.5 °F /  -16.4 °C 30.33 in /  1027 hPa SW 3.1 mph /  5 km/h 11.5 mph /  18.5 km/h 50 % 0.00 in /  0 mm
19:26 17.9 °F /  -7.8 °C 2.4 °F /  -16.4 °C 30.33 in /  1027 hPa WNW 9.7 mph /  15.6 km/h 12.7 mph /  20.4 km/h 50 % 0.00 in /  0 mm
19:27 17.9 °F /  -7.8 °C 2.4 °F /  -16.4 °C 30.34 in /  1027.3 hPa NW 8.8 mph /  14.2 km/h 13.8 mph /  22.2 km/h 50 % 0.00 in /  0 mm
19:32 17.9 °F /  -7.8 °C 2.4 °F /  -16.4 °C 30.33 in /  1027 hPa NW 4.7 mph /  7.6 km/h 12.0 mph /  19.3 km/h 50 % 0.00 in /  0 mm
19:33 17.9 °F /  -7.8 °C 2.4 °F /  -16.4 °C 30.34 in /  1027.3 hPa West 4.3 mph /  6.9 km/h 11.5 mph /  18.5 km/h 50 % 0.00 in /  0 mm
19:38 17.9 °F /  -7.8 °C 2.8 °F /  -16.2 °C 30.34 in /  1027.3 hPa WNW 4.9 mph /  7.9 km/h 9.0 mph /  14.5 km/h 51 % 0.00 in /  0 mm
19:41 17.9 °F /  -7.8 °C 2.4 °F /  -16.4 °C 30.34 in /  1027.3 hPa WNW 5.3 mph /  8.5 km/h 11.5 mph /  18.5 km/h 50 % 0.00 in /  0 mm
19:47 18.0 °F /  -7.8 °C 3.3 °F /  -15.9 °C 30.34 in /  1027.3 hPa WNW 8.1 mph /  13 km/h 15.0 mph /  24.1 km/h 52 % 0.00 in /  0 mm
19:48 18.0 °F /  -7.8 °C 3.3 °F /  -15.9 °C 30.34 in /  1027.3 hPa NW 10.1 mph /  16.3 km/h 15.0 mph /  24.1 km/h 52 % 0.00 in /  0 mm
19:53 18.0 °F /  -7.8 °C 2.5 °F /  -16.4 °C 30.34 in /  1027.3 hPa WNW 4.7 mph /  7.6 km/h 12.7 mph /  20.4 km/h 50 % 0.00 in /  0 mm
19:55 18.0 °F /  -7.8 °C 2.5 °F /  -16.4 °C 30.34 in /  1027.3 hPa NW 9.1 mph /  14.6 km/h 16.1 mph /  25.9 km/h 50 % 0.00 in /  0 mm
20:00 18.0 °F /  -7.8 °C 2.9 °F /  -16.2 °C 30.34 in /  1027.3 hPa WNW 6.5 mph /  10.5 km/h 12.7 mph /  20.4 km/h 51 % 0.00 in /  0 mm
20:03 18.0 °F /  -7.8 °C 2.9 °F /  -16.2 °C 30.34 in /  1027.3 hPa WNW 4.5 mph /  7.2 km/h 11.5 mph /  18.5 km/h 51 % 0.00 in /  0 mm
20:06 18.0 °F /  -7.8 °C 2.9 °F /  -16.2 °C 30.34 in /  1027.3 hPa West 6.1 mph /  9.8 km/h 13.8 mph /  22.2 km/h 51 % 0.00 in /  0 mm
20:11 18.0 °F /  -7.8 °C 2.9 °F /  -16.2 °C 30.34 in /  1027.3 hPa West 7.7 mph /  12.4 km/h 12.7 mph /  20.4 km/h 51 % 0.00 in /  0 mm
20:12 18.0 °F /  -7.8 °C 3.3 °F /  -15.9 °C 30.34 in /  1027.3 hPa West 6.0 mph /  9.7 km/h 11.5 mph /  18.5 km/h 52 % 0.00 in /  0 mm
20:16 18.0 °F /  -7.8 °C 3.3 °F /  -15.9 °C 30.34 in /  1027.3 hPa SW 6.9 mph /  11.1 km/h 11.0 mph /  17.7 km/h 52 % 0.00 in /  0 mm
20:21 17.9 °F /  -7.8 °C 3.6 °F /  -15.8 °C 30.34 in /  1027.3 hPa WNW 5.8 mph /  9.3 km/h 10.0 mph /  16.1 km/h 53 % 0.00 in /  0 mm
20:25 17.9 °F /  -7.8 °C 3.6 °F /  -15.8 °C 30.34 in /  1027.3 hPa West 6.0 mph /  9.7 km/h 11.5 mph /  18.5 km/h 53 % 0.00 in /  0 mm
20:27 17.9 °F /  -7.8 °C 4.0 °F /  -15.6 °C 30.34 in /  1027.3 hPa WNW 6.1 mph /  9.8 km/h 9.2 mph /  14.8 km/h 54 % 0.00 in /  0 mm
20:32 17.9 °F /  -7.8 °C 3.6 °F /  -15.8 °C 30.34 in /  1027.3 hPa NW 7.7 mph /  12.4 km/h 13.0 mph /  20.9 km/h 53 % 0.00 in /  0 mm
20:35 17.9 °F /  -7.8 °C 4.0 °F /  -15.6 °C 30.34 in /  1027.3 hPa WNW 8.2 mph /  13.2 km/h 18.4 mph /  29.6 km/h 54 % 0.00 in /  0 mm
20:38 17.9 °F /  -7.8 °C 4.0 °F /  -15.6 °C 30.35 in /  1027.7 hPa WSW 5.3 mph /  8.5 km/h 11.5 mph /  18.5 km/h 54 % 0.00 in /  0 mm
20:40 17.9 °F /  -7.8 °C 4.0 °F /  -15.6 °C 30.34 in /  1027.3 hPa NW 8.0 mph /  12.9 km/h 12.7 mph /  20.4 km/h 54 % 0.00 in /  0 mm
20:45 17.9 °F /  -7.8 °C 4.0 °F /  -15.6 °C 30.34 in /  1027.3 hPa WNW 5.1 mph /  8.2 km/h 12.7 mph /  20.4 km/h 54 % 0.00 in /  0 mm
20:49 17.9 °F /  -7.8 °C 3.6 °F /  -15.8 °C 30.34 in /  1027.3 hPa WSW 4.6 mph /  7.4 km/h 15.0 mph /  24.1 km/h 53 % 0.00 in /  0 mm
20:53 17.9 °F /  -7.8 °C 3.6 °F /  -15.8 °C 30.34 in /  1027.3 hPa WNW 5.7 mph /  9.2 km/h 11.5 mph /  18.5 km/h 53 % 0.00 in /  0 mm
20:56 17.9 °F /  -7.8 °C 3.6 °F /  -15.8 °C 30.34 in /  1027.3 hPa West 4.6 mph /  7.4 km/h 10.0 mph /  16.1 km/h 53 % 0.00 in /  0 mm
20:58 17.9 °F /  -7.8 °C 3.6 °F /  -15.8 °C 30.34 in /  1027.3 hPa West 7.2 mph /  11.6 km/h 12.7 mph /  20.4 km/h 53 % 0.00 in /  0 mm
21:03 17.8 °F /  -7.9 °C 3.5 °F /  -15.8 °C 30.34 in /  1027.3 hPa WNW 4.6 mph /  7.4 km/h 11.5 mph /  18.5 km/h 53 % 0.00 in /  0 mm
21:13 17.9 °F /  -7.8 °C 3.6 °F /  -15.8 °C 30.34 in /  1027.3 hPa WSW 5.9 mph /  9.5 km/h 9.2 mph /  14.8 km/h 53 % 0.00 in /  0 mm
21:17 17.9 °F /  -7.8 °C 4.0 °F /  -15.6 °C 30.33 in /  1027 hPa WSW 4.9 mph /  7.9 km/h 9.2 mph /  14.8 km/h 54 % 0.00 in /  0 mm
21:19 17.9 °F /  -7.8 °C 4.0 °F /  -15.6 °C 30.33 in /  1027 hPa SW 6.9 mph /  11.1 km/h 11.5 mph /  18.5 km/h 54 % 0.00 in /  0 mm
21:24 17.9 °F /  -7.8 °C 3.6 °F /  -15.8 °C 30.34 in /  1027.3 hPa SW 5.6 mph /  9 km/h 15.0 mph /  24.1 km/h 53 % 0.00 in /  0 mm
21:25 17.9 °F /  -7.8 °C 4.0 °F /  -15.6 °C 30.33 in /  1027 hPa WSW 7.5 mph /  12.1 km/h 11.5 mph /  18.5 km/h 54 % 0.00 in /  0 mm
21:30 17.9 °F /  -7.8 °C 4.0 °F /  -15.6 °C 30.34 in /  1027.3 hPa West 8.1 mph /  13 km/h 13.8 mph /  22.2 km/h 54 % 0.00 in /  0 mm
21:31 18.0 °F /  -7.8 °C 4.1 °F /  -15.5 °C 30.34 in /  1027.3 hPa West 8.0 mph /  12.9 km/h 14.0 mph /  22.5 km/h 54 % 0.00 in /  0 mm
21:34 17.9 °F /  -7.8 °C 4.4 °F /  -15.3 °C 30.33 in /  1027 hPa WSW 7.6 mph /  12.2 km/h 11.5 mph /  18.5 km/h 55 % 0.00 in /  0 mm
21:37 17.9 °F /  -7.8 °C 4.4 °F /  -15.3 °C 30.33 in /  1027 hPa West 4.4 mph /  7.1 km/h 9.2 mph /  14.8 km/h 55 % 0.00 in /  0 mm
21:42 17.9 °F /  -7.8 °C 4.8 °F /  -15.1 °C 30.33 in /  1027 hPa NW 7.2 mph /  11.6 km/h 9.0 mph /  14.5 km/h 56 % 0.00 in /  0 mm
21:44 17.9 °F /  -7.8 °C 4.8 °F /  -15.1 °C 30.33 in /  1027 hPa WSW 5.4 mph /  8.7 km/h 13.0 mph /  20.9 km/h 56 % 0.00 in /  0 mm
21:49 17.9 °F /  -7.8 °C 5.2 °F /  -14.9 °C 30.34 in /  1027.3 hPa WSW 7.3 mph /  11.7 km/h 12.7 mph /  20.4 km/h 57 % 0.00 in /  0 mm
21:50 18.0 °F /  -7.8 °C 5.3 °F /  -14.8 °C 30.33 in /  1027 hPa SW 7.1 mph /  11.4 km/h 12.7 mph /  20.4 km/h 57 % 0.00 in /  0 mm
21:55 18.0 °F /  -7.8 °C 5.3 °F /  -14.8 °C 30.34 in /  1027.3 hPa WSW 5.9 mph /  9.5 km/h 14.0 mph /  22.5 km/h 57 % 0.00 in /  0 mm
22:00 18.0 °F /  -7.8 °C 5.7 °F /  -14.6 °C 30.33 in /  1027 hPa West 11.9 mph /  19.2 km/h 17.3 mph /  27.8 km/h 58 % 0.00 in /  0 mm
22:01 18.1 °F /  -7.7 °C 5.8 °F /  -14.6 °C 30.34 in /  1027.3 hPa NW 6.4 mph /  10.3 km/h 13.8 mph /  22.2 km/h 58 % 0.00 in /  0 mm
22:07 18.1 °F /  -7.7 °C 5.8 °F /  -14.6 °C 30.33 in /  1027 hPa WNW 3.3 mph /  5.3 km/h 11.5 mph /  18.5 km/h 58 % 0.00 in /  0 mm
22:13 18.1 °F /  -7.7 °C 5.8 °F /  -14.6 °C 30.34 in /  1027.3 hPa WSW 7.6 mph /  12.2 km/h 12.0 mph /  19.3 km/h 58 % 0.00 in /  0 mm
22:16 18.2 °F /  -7.7 °C 6.3 °F /  -14.3 °C 30.34 in /  1027.3 hPa WSW 4.6 mph /  7.4 km/h 11.5 mph /  18.5 km/h 59 % 0.00 in /  0 mm
22:20 18.1 °F /  -7.7 °C 6.2 °F /  -14.3 °C 30.33 in /  1027 hPa West 6.0 mph /  9.7 km/h 12.0 mph /  19.3 km/h 59 % 0.00 in /  0 mm
22:21 18.1 °F /  -7.7 °C 6.2 °F /  -14.3 °C 30.33 in /  1027 hPa WSW 5.9 mph /  9.5 km/h 9.2 mph /  14.8 km/h 59 % 0.00 in /  0 mm
22:31 18.1 °F /  -7.7 °C 6.9 °F /  -13.9 °C 30.33 in /  1027 hPa West 7.3 mph /  11.7 km/h 11.5 mph /  18.5 km/h 61 % 0.00 in /  0 mm
22:36 18.2 °F /  -7.7 °C 7.0 °F /  -13.9 °C 30.33 in /  1027 hPa NW 6.5 mph /  10.5 km/h 13.8 mph /  22.2 km/h 61 % 0.00 in /  0 mm
22:41 18.2 °F /  -7.7 °C 7.0 °F /  -13.9 °C 30.33 in /  1027 hPa WSW 6.4 mph /  10.3 km/h 10.0 mph /  16.1 km/h 61 % 0.00 in /  0 mm
22:45 18.2 °F /  -7.7 °C 7.0 °F /  -13.9 °C 30.33 in /  1027 hPa WSW 5.4 mph /  8.7 km/h 11.5 mph /  18.5 km/h 61 % 0.00 in /  0 mm
22:50 18.2 °F /  -7.7 °C 7.0 °F /  -13.9 °C 30.33 in /  1027 hPa West 6.1 mph /  9.8 km/h 10.4 mph /  16.7 km/h 61 % 0.00 in /  0 mm
22:51 18.2 °F /  -7.7 °C 7.0 °F /  -13.9 °C 30.33 in /  1027 hPa West 4.2 mph /  6.8 km/h 9.0 mph /  14.5 km/h 61 % 0.00 in /  0 mm
22:57 18.2 °F /  -7.7 °C 7.0 °F /  -13.9 °C 30.33 in /  1027 hPa NNW 7.4 mph /  11.9 km/h 17.3 mph /  27.8 km/h 61 % 0.00 in /  0 mm
23:02 18.1 °F /  -7.7 °C 6.5 °F /  -14.2 °C 30.33 in /  1027 hPa WSW 11.2 mph /  18 km/h 16.0 mph /  25.7 km/h 60 % 0.00 in /  0 mm
23:07 18.2 °F /  -7.7 °C 6.6 °F /  -14.1 °C 30.33 in /  1027 hPa WSW 5.1 mph /  8.2 km/h 10.4 mph /  16.7 km/h 60 % 0.00 in /  0 mm
23:09 18.1 °F /  -7.7 °C 6.5 °F /  -14.2 °C 30.33 in /  1027 hPa SW 7.9 mph /  12.7 km/h 18.0 mph /  29 km/h 60 % 0.00 in /  0 mm
23:13 18.1 °F /  -7.7 °C 6.9 °F /  -13.9 °C 30.33 in /  1027 hPa WSW 5.3 mph /  8.5 km/h 10.4 mph /  16.7 km/h 61 % 0.00 in /  0 mm
23:23 18.0 °F /  -7.8 °C 6.8 °F /  -14 °C 30.33 in /  1027 hPa WNW 8.5 mph /  13.7 km/h 14.0 mph /  22.5 km/h 61 % 0.00 in /  0 mm
23:24 18.0 °F /  -7.8 °C 6.8 °F /  -14 °C 30.33 in /  1027 hPa West 9.9 mph /  15.9 km/h 13.0 mph /  20.9 km/h 61 % 0.00 in /  0 mm
23:29 18.0 °F /  -7.8 °C 6.8 °F /  -14 °C 30.33 in /  1027 hPa West 7.1 mph /  11.4 km/h 13.8 mph /  22.2 km/h 61 % 0.00 in /  0 mm
23:30 18.0 °F /  -7.8 °C 6.8 °F /  -14 °C 30.32 in /  1026.6 hPa WNW 4.3 mph /  6.9 km/h 11.5 mph /  18.5 km/h 61 % 0.00 in /  0 mm
23:35 17.9 °F /  -7.8 °C 6.7 °F /  -14.1 °C 30.33 in /  1027 hPa West 7.8 mph /  12.6 km/h 13.0 mph /  20.9 km/h 61 % 0.00 in /  0 mm
23:38 17.9 °F /  -7.8 °C 7.1 °F /  -13.8 °C 30.33 in /  1027 hPa WNW 3.8 mph /  6.1 km/h 6.9 mph /  11.1 km/h 62 % 0.00 in /  0 mm
23:44 17.8 °F /  -7.9 °C 7.0 °F /  -13.9 °C 30.32 in /  1026.6 hPa West 10.0 mph /  16.1 km/h 15.0 mph /  24.1 km/h 62 % 0.00 in /  0 mm
23:46 17.8 °F /  -7.9 °C 7.0 °F /  -13.9 °C 30.33 in /  1027 hPa WNW 6.2 mph /  10 km/h 14.0 mph /  22.5 km/h 62 % 0.00 in /  0 mm
23:50 17.7 °F /  -7.9 °C 6.9 °F /  -13.9 °C 30.33 in /  1027 hPa WNW 8.9 mph /  14.3 km/h 9.2 mph /  14.8 km/h 62 % 0.00 in /  0 mm
23:55 17.6 °F /  -8 °C 6.8 °F /  -14 °C 30.32 in /  1026.6 hPa NNW 10.8 mph /  17.4 km/h 18.4 mph /  29.6 km/h 62 % 0.00 in /  0 mm
Crab Meadow Weather
Compliments of Weather Underground - 3.5 mb

Script developed by  Jim McMurry - jmcmurry@mwt.net Adapted for the template by  Wim van der Kuil - Leuven-Template.eu

Astronomy: Earth is 93 million miles away from the Sun.